sensor_id;sensor_type;location;lat;lon;timestamp;pressure;altitude;pressure_sealevel;temperature;humidity
21111;BME280;10713;51.912;4.494;2023-05-01T00:00:43;101762.13;;;12.49;100.00
21111;BME280;10713;51.912;4.494;2023-05-01T00:03:09;101769.19;;;12.49;100.00
21111;BME280;10713;51.912;4.494;2023-05-01T00:05:34;101767.41;;;12.49;100.00
21111;BME280;10713;51.912;4.494;2023-05-01T00:07:59;101769.25;;;12.47;100.00
21111;BME280;10713;51.912;4.494;2023-05-01T00:10:25;101759.53;;;12.48;100.00
21111;BME280;10713;51.912;4.494;2023-05-01T00:12:50;101757.78;;;12.47;100.00
21111;BME280;10713;51.912;4.494;2023-05-01T00:15:15;101755.09;;;12.48;100.00
21111;BME280;10713;51.912;4.494;2023-05-01T00:17:41;101751.63;;;12.46;100.00
21111;BME280;10713;51.912;4.494;2023-05-01T00:20:07;101743.78;;;12.43;100.00
21111;BME280;10713;51.912;4.494;2023-05-01T00:22:32;101748.25;;;12.41;100.00
21111;BME280;10713;51.912;4.494;2023-05-01T00:24:58;101743.06;;;12.38;100.00
21111;BME280;10713;51.912;4.494;2023-05-01T00:27:23;101740.41;;;12.38;100.00
21111;BME280;10713;51.912;4.494;2023-05-01T00:29:49;101731.66;;;12.36;100.00
21111;BME280;10713;51.912;4.494;2023-05-01T00:32:14;101730.78;;;12.35;100.00
21111;BME280;10713;51.912;4.494;2023-05-01T00:34:40;101731.66;;;12.36;100.00
21111;BME280;10713;51.912;4.494;2023-05-01T00:37:06;101732.56;;;12.35;100.00
21111;BME280;10713;51.912;4.494;2023-05-01T00:39:31;101729.09;;;12.33;100.00
21111;BME280;10713;51.912;4.494;2023-05-01T00:41:57;101721.16;;;12.33;100.00
21111;BME280;10713;51.912;4.494;2023-05-01T00:44:22;101714.16;;;12.32;100.00
21111;BME280;10713;51.912;4.494;2023-05-01T00:46:48;101718.56;;;12.31;100.00
21111;BME280;10713;51.912;4.494;2023-05-01T00:49:14;101714.19;;;12.30;100.00
21111;BME280;10713;51.912;4.494;2023-05-01T00:51:39;101706.25;;;12.30;100.00
21111;BME280;10713;51.912;4.494;2023-05-01T00:54:05;101704.50;;;12.29;100.00
21111;BME280;10713;51.912;4.494;2023-05-01T00:56:30;101703.66;;;12.29;100.00
21111;BME280;10713;51.912;4.494;2023-05-01T00:58:56;101699.28;;;12.28;100.00
21111;BME280;10713;51.912;4.494;2023-05-01T01:01:22;101693.16;;;12.26;100.00
21111;BME280;10713;51.912;4.494;2023-05-01T01:03:48;101687.88;;;12.26;100.00
21111;BME280;10713;51.912;4.494;2023-05-01T01:12:05;101669.44;;;12.23;100.00
21111;BME280;10713;51.912;4.494;2023-05-01T01:14:44;101673.91;;;12.21;100.00
21111;BME280;10713;51.912;4.494;2023-05-01T01:17:35;101656.31;;;12.20;100.00
21111;BME280;10713;51.912;4.494;2023-05-01T01:20:31;101659.06;;;12.16;100.00
21111;BME280;10713;51.912;4.494;2023-05-01T01:26:26;101663.84;;;12.05;100.00
21111;BME280;10713;51.912;4.494;2023-05-01T01:31:32;101668.41;;;12.00;100.00
21111;BME280;10713;51.912;4.494;2023-05-01T01:34:13;101653.34;;;12.02;100.00
21111;BME280;10713;51.912;4.494;2023-05-01T01:36:48;101653.47;;;11.99;100.00
21111;BME280;10713;51.912;4.494;2023-05-01T01:39:22;101650.00;;;11.97;100.00
21111;BME280;10713;51.912;4.494;2023-05-01T01:41:50;101644.72;;;11.95;100.00
21111;BME280;10713;51.912;4.494;2023-05-01T01:44:33;101639.50;;;11.94;100.00
21111;BME280;10713;51.912;4.494;2023-05-01T01:47:05;101640.38;;;11.94;100.00
21111;BME280;10713;51.912;4.494;2023-05-01T01:49:33;101639.59;;;11.91;100.00
21111;BME280;10713;51.912;4.494;2023-05-01T01:52:02;101629.97;;;11.88;100.00
21111;BME280;10713;51.912;4.494;2023-05-01T01:54:34;101635.31;;;11.87;100.00
21111;BME280;10713;51.912;4.494;2023-05-01T01:57:01;101626.66;;;11.82;100.00
21111;BME280;10713;51.912;4.494;2023-05-01T01:59:30;101631.13;;;11.80;100.00
21111;BME280;10713;51.912;4.494;2023-05-01T02:01:57;101627.53;;;11.81;100.00
21111;BME280;10713;51.912;4.494;2023-05-01T02:04:26;101629.34;;;11.79;100.00
21111;BME280;10713;51.912;4.494;2023-05-01T02:06:54;101622.41;;;11.76;100.00
21111;BME280;10713;51.912;4.494;2023-05-01T02:09:22;101618.97;;;11.72;100.00
21111;BME280;10713;51.912;4.494;2023-05-01T02:11:48;101621.78;;;11.68;100.00
21111;BME280;10713;51.912;4.494;2023-05-01T02:14:17;101614.81;;;11.65;100.00
21111;BME280;10713;51.912;4.494;2023-05-01T02:16:43;101609.56;;;11.64;100.00
21111;BME280;10713;51.912;4.494;2023-05-01T02:19:10;101609.63;;;11.62;100.00
21111;BME280;10713;51.912;4.494;2023-05-01T02:21:37;101612.19;;;11.64;100.00
21111;BME280;10713;51.912;4.494;2023-05-01T02:24:04;101605.19;;;11.63;100.00
21111;BME280;10713;51.912;4.494;2023-05-01T02:26:33;101600.66;;;11.66;100.00
21111;BME280;10713;51.912;4.494;2023-05-01T02:29:02;101601.53;;;11.67;100.00
21111;BME280;10713;51.912;4.494;2023-05-01T02:31:29;101602.38;;;11.67;100.00
21111;BME280;10713;51.912;4.494;2023-05-01T02:33:54;101593.69;;;11.64;100.00
21111;BME280;10713;51.912;4.494;2023-05-01T02:36:19;101595.56;;;11.60;100.00
21111;BME280;10713;51.912;4.494;2023-05-01T02:38:45;101591.25;;;11.58;100.00
21111;BME280;10713;51.912;4.494;2023-05-01T02:41:12;101591.22;;;11.59;100.00
21111;BME280;10713;51.912;4.494;2023-05-01T02:43:40;101586.88;;;11.57;100.00
21111;BME280;10713;51.912;4.494;2023-05-01T02:46:06;101589.63;;;11.54;100.00
21111;BME280;10713;51.912;4.494;2023-05-01T02:48:35;101579.94;;;11.53;100.00
21111;BME280;10713;51.912;4.494;2023-05-01T02:51:02;101580.53;;;11.62;100.00
21111;BME280;10713;51.912;4.494;2023-05-01T02:53:29;101579.22;;;11.76;100.00
21111;BME280;10713;51.912;4.494;2023-05-01T02:55:55;101568.53;;;11.79;100.00
21111;BME280;10713;51.912;4.494;2023-05-01T02:58:20;101563.72;;;11.65;100.00
21111;BME280;10713;51.912;4.494;2023-05-01T03:00:47;101576.34;;;11.55;100.00
21111;BME280;10713;51.912;4.494;2023-05-01T03:03:13;101567.78;;;11.47;100.00
21111;BME280;10713;51.912;4.494;2023-05-01T03:05:39;101563.66;;;11.38;100.00
21111;BME280;10713;51.912;4.494;2023-05-01T03:08:06;101568.03;;;11.39;100.00
21111;BME280;10713;51.912;4.494;2023-05-01T03:10:32;101559.28;;;11.37;100.00
21111;BME280;10713;51.912;4.494;2023-05-01T03:12:57;101560.03;;;11.41;100.00
21111;BME280;10713;51.912;4.494;2023-05-01T03:15:22;101565.94;;;11.50;100.00
21111;BME280;10713;51.912;4.494;2023-05-01T03:17:48;101561.63;;;11.46;100.00
21111;BME280;10713;51.912;4.494;2023-05-01T03:20:13;101551.25;;;11.40;100.00
21111;BME280;10713;51.912;4.494;2023-05-01T03:22:39;101543.53;;;11.34;100.00
21111;BME280;10713;51.912;4.494;2023-05-01T03:25:05;101548.84;;;11.33;100.00
21111;BME280;10713;51.912;4.494;2023-05-01T03:27:31;101538.38;;;11.30;100.00
21111;BME280;10713;51.912;4.494;2023-05-01T03:29:56;101540.22;;;11.27;100.00
21111;BME280;10713;51.912;4.494;2023-05-01T03:32:21;101545.44;;;11.29;100.00
21111;BME280;10713;51.912;4.494;2023-05-01T03:34:47;101539.38;;;11.25;100.00
21111;BME280;10713;51.912;4.494;2023-05-01T03:37:12;101534.03;;;11.27;100.00
21111;BME280;10713;51.912;4.494;2023-05-01T03:39:38;101531.66;;;11.19;100.00
21111;BME280;10713;51.912;4.494;2023-05-01T03:42:04;101540.47;;;11.18;100.00
21111;BME280;10713;51.912;4.494;2023-05-01T03:44:29;101530.06;;;11.14;100.00
21111;BME280;10713;51.912;4.494;2023-05-01T03:46:55;101531.91;;;11.10;100.00
21111;BME280;10713;51.912;4.494;2023-05-01T03:49:20;101524.06;;;11.07;100.00
21111;BME280;10713;51.912;4.494;2023-05-01T03:51:46;101528.50;;;11.07;100.00
21111;BME280;10713;51.912;4.494;2023-05-01T03:54:11;101518.94;;;11.02;100.00
21111;BME280;10713;51.912;4.494;2023-05-01T03:56:37;101521.63;;;11.01;100.00
21111;BME280;10713;51.912;4.494;2023-05-01T03:59:02;101520.75;;;11.00;100.00
21111;BME280;10713;51.912;4.494;2023-05-01T04:01:28;101525.94;;;11.03;100.00
21111;BME280;10713;51.912;4.494;2023-05-01T04:03:53;101519.81;;;11.03;100.00
21111;BME280;10713;51.912;4.494;2023-05-01T04:06:19;101524.22;;;11.02;100.00
21111;BME280;10713;51.912;4.494;2023-05-01T04:08:44;101519.81;;;11.03;100.00
21111;BME280;10713;51.912;4.494;2023-05-01T04:11:10;101512.75;;;11.03;100.00
21111;BME280;10713;51.912;4.494;2023-05-01T04:13:35;101510.06;;;11.05;100.00
21111;BME280;10713;51.912;4.494;2023-05-01T04:16:01;101514.56;;;11.01;100.00
21111;BME280;10713;51.912;4.494;2023-05-01T04:18:26;101512.84;;;11.00;100.00
21111;BME280;10713;51.912;4.494;2023-05-01T04:20:51;101512.91;;;10.99;100.00
21111;BME280;10713;51.912;4.494;2023-05-01T04:23:17;101511.97;;;11.00;100.00
21111;BME280;10713;51.912;4.494;2023-05-01T04:25:42;101505.84;;;10.99;100.00
21111;BME280;10713;51.912;4.494;2023-05-01T04:28:10;101506.69;;;11.00;100.00
21111;BME280;10713;51.912;4.494;2023-05-01T04:30:36;101515.44;;;11.02;100.00
21111;BME280;10713;51.912;4.494;2023-05-01T04:33:01;101511.06;;;11.01;100.00
21111;BME280;10713;51.912;4.494;2023-05-01T04:35:28;101510.25;;;10.99;100.00
21111;BME280;10713;51.912;4.494;2023-05-01T04:37:53;101506.78;;;10.97;100.00
21111;BME280;10713;51.912;4.494;2023-05-01T04:40:18;101504.19;;;10.95;100.00
21111;BME280;10713;51.912;4.494;2023-05-01T04:42:44;101495.41;;;10.95;100.00
21111;BME280;10713;51.912;4.494;2023-05-01T04:45:10;101495.41;;;10.95;100.00
21111;BME280;10713;51.912;4.494;2023-05-01T04:47:35;101501.59;;;10.94;100.00
21111;BME280;10713;51.912;4.494;2023-05-01T04:50:01;101502.41;;;10.96;100.00
21111;BME280;10713;51.912;4.494;2023-05-01T04:52:26;101509.44;;;10.97;100.00
21111;BME280;10713;51.912;4.494;2023-05-01T04:54:52;101502.28;;;11.00;100.00
21111;BME280;10713;51.912;4.494;2023-05-01T04:57:17;101500.47;;;11.02;100.00
21111;BME280;10713;51.912;4.494;2023-05-01T04:59:43;101494.31;;;11.02;100.00
21111;BME280;10713;51.912;4.494;2023-05-01T05:02:08;101502.91;;;11.09;100.00
21111;BME280;10713;51.912;4.494;2023-05-01T05:04:34;101500.16;;;11.12;100.00
21111;BME280;10713;51.912;4.494;2023-05-01T05:06:59;101499.16;;;11.16;100.00
21111;BME280;10713;51.912;4.494;2023-05-01T05:09:24;101503.47;;;11.18;100.00
21111;BME280;10713;51.912;4.494;2023-05-01T05:11:50;101499.78;;;11.24;100.00
21111;BME280;10713;51.912;4.494;2023-05-01T05:14:15;101502.41;;;11.24;100.00
21111;BME280;10713;51.912;4.494;2023-05-01T05:16:40;101510.97;;;11.60;100.00
21111;BME280;10713;51.912;4.494;2023-05-01T05:19:06;101501.75;;;11.17;100.00
21111;BME280;10713;51.912;4.494;2023-05-01T05:21:31;101506.22;;;11.15;100.00
21111;BME280;10713;51.912;4.494;2023-05-01T05:23:57;101504.41;;;11.17;100.00
21111;BME280;10713;51.912;4.494;2023-05-01T05:26:22;101502.97;;;11.62;100.00
21111;BME280;10713;51.912;4.494;2023-05-01T05:28:49;101506.19;;;11.71;100.00
21111;BME280;10713;51.912;4.494;2023-05-01T05:31:15;101497.94;;;11.81;100.00
21111;BME280;10713;51.912;4.494;2023-05-01T05:33:40;101493.16;;;11.92;100.00
21111;BME280;10713;51.912;4.494;2023-05-01T05:36:06;101492.59;;;12.09;100.00
21111;BME280;10713;51.912;4.494;2023-05-01T05:38:31;101497.75;;;12.37;100.00
21111;BME280;10713;51.912;4.494;2023-05-01T05:40:57;101491.50;;;12.63;100.00
21111;BME280;10713;51.912;4.494;2023-05-01T05:43:23;101488.03;;;12.84;100.00
21111;BME280;10713;51.912;4.494;2023-05-01T05:45:48;101482.88;;;13.03;100.00
21111;BME280;10713;51.912;4.494;2023-05-01T05:48:14;101490.47;;;13.13;100.00
21111;BME280;10713;51.912;4.494;2023-05-01T05:50:39;101482.25;;;13.19;100.00
21111;BME280;10713;51.912;4.494;2023-05-01T05:53:05;101481.28;;;13.21;100.00
21111;BME280;10713;51.912;4.494;2023-05-01T05:55:30;101479.84;;;13.13;100.00
21111;BME280;10713;51.912;4.494;2023-05-01T05:57:55;101476.41;;;12.89;100.00
21111;BME280;10713;51.912;4.494;2023-05-01T06:00:21;101480.63;;;12.71;100.00
21111;BME280;10713;51.912;4.494;2023-05-01T06:02:46;101475.59;;;12.63;100.00
21111;BME280;10713;51.912;4.494;2023-05-01T06:05:12;101476.81;;;12.54;100.00
21111;BME280;10713;51.912;4.494;2023-05-01T06:07:37;101479.81;;;12.45;100.00
21111;BME280;10713;51.912;4.494;2023-05-01T06:10:04;101483.47;;;12.41;100.00
21111;BME280;10713;51.912;4.494;2023-05-01T06:12:30;101485.22;;;12.42;100.00
21111;BME280;10713;51.912;4.494;2023-05-01T06:14:56;101480.81;;;12.41;100.00
21111;BME280;10713;51.912;4.494;2023-05-01T06:17:23;101484.22;;;12.45;100.00
21111;BME280;10713;51.912;4.494;2023-05-01T06:19:48;101484.81;;;12.53;100.00
21111;BME280;10713;51.912;4.494;2023-05-01T06:22:16;101481.84;;;12.62;100.00
21111;BME280;10713;51.912;4.494;2023-05-01T06:24:41;101479.00;;;12.67;100.00
21111;BME280;10713;51.912;4.494;2023-05-01T06:27:07;101476.91;;;12.75;100.00
21111;BME280;10713;51.912;4.494;2023-05-01T06:29:32;101484.91;;;12.73;100.00
21111;BME280;10713;51.912;4.494;2023-05-01T06:31:57;101486.72;;;12.73;100.00
21111;BME280;10713;51.912;4.494;2023-05-01T06:34:23;101486.53;;;12.77;100.00
21111;BME280;10713;51.912;4.494;2023-05-01T06:36:48;101485.56;;;12.80;100.00
21111;BME280;10713;51.912;4.494;2023-05-01T06:39:13;101489.25;;;12.99;100.00
21111;BME280;10713;51.912;4.494;2023-05-01T06:41:39;101487.94;;;13.10;100.00
21111;BME280;10713;51.912;4.494;2023-05-01T06:44:04;101478.88;;;13.15;100.00
21111;BME280;10713;51.912;4.494;2023-05-01T06:46:29;101472.09;;;13.08;100.00
21111;BME280;10713;51.912;4.494;2023-05-01T06:48:55;101484.59;;;13.04;100.00
21111;BME280;10713;51.912;4.494;2023-05-01T06:51:20;101481.56;;;12.92;100.00
21111;BME280;10713;51.912;4.494;2023-05-01T06:53:46;101481.16;;;12.79;100.00
21111;BME280;10713;51.912;4.494;2023-05-01T06:56:11;101487.47;;;12.76;100.00
21111;BME280;10713;51.912;4.494;2023-05-01T06:58:36;101481.38;;;12.74;100.00
21111;BME280;10713;51.912;4.494;2023-05-01T07:01:02;101492.88;;;12.73;100.00
21111;BME280;10713;51.912;4.494;2023-05-01T07:03:27;101488.50;;;12.72;100.00
21111;BME280;10713;51.912;4.494;2023-05-01T07:05:53;101491.75;;;12.79;100.00
21111;BME280;10713;51.912;4.494;2023-05-01T07:08:19;101494.09;;;12.88;100.00
21111;BME280;10713;51.912;4.494;2023-05-01T07:10:45;101491.31;;;12.91;100.00
21111;BME280;10713;51.912;4.494;2023-05-01T07:13:10;101487.56;;;12.97;100.00
21111;BME280;10713;51.912;4.494;2023-05-01T07:15:35;101484.72;;;13.01;100.00
21111;BME280;10713;51.912;4.494;2023-05-01T07:18:01;101485.91;;;12.94;100.00
21111;BME280;10713;51.912;4.494;2023-05-01T07:20:30;101487.03;;;12.87;100.00
21111;BME280;10713;51.912;4.494;2023-05-01T07:22:55;101492.09;;;12.93;100.00
21111;BME280;10713;51.912;4.494;2023-05-01T07:25:21;101485.09;;;12.92;100.00
21111;BME280;10713;51.912;4.494;2023-05-01T07:27:46;101486.91;;;12.90;100.00
21111;BME280;10713;51.912;4.494;2023-05-01T07:30:12;101485.25;;;12.88;100.00
21111;BME280;10713;51.912;4.494;2023-05-01T07:32:37;101490.38;;;12.92;100.00
21111;BME280;10713;51.912;4.494;2023-05-01T07:35:02;101487.56;;;12.97;100.00
21111;BME280;10713;51.912;4.494;2023-05-01T07:37:28;101487.03;;;13.11;100.00
21111;BME280;10713;51.912;4.494;2023-05-01T07:39:55;101482.56;;;13.35;100.00
21111;BME280;10713;51.912;4.494;2023-05-01T07:42:20;101481.38;;;13.42;100.00
21111;BME280;10713;51.912;4.494;2023-05-01T07:44:45;101479.22;;;13.51;100.00
21111;BME280;10713;51.912;4.494;2023-05-01T07:47:11;101479.28;;;13.70;100.00
21111;BME280;10713;51.912;4.494;2023-05-01T07:49:37;101478.06;;;14.00;100.00
21111;BME280;10713;51.912;4.494;2023-05-01T07:52:03;101471.88;;;14.19;100.00
21111;BME280;10713;51.912;4.494;2023-05-01T07:54:29;101474.47;;;14.21;100.00
21111;BME280;10713;51.912;4.494;2023-05-01T07:56:55;101476.56;;;14.33;100.00
21111;BME280;10713;51.912;4.494;2023-05-01T07:59:20;101476.38;;;14.38;100.00
21111;BME280;10713;51.912;4.494;2023-05-01T08:01:46;101473.00;;;14.34;100.00
21111;BME280;10713;51.912;4.494;2023-05-01T08:04:11;101477.88;;;14.43;100.00
21111;BME280;10713;51.912;4.494;2023-05-01T08:06:36;101473.41;;;14.44;100.00
21111;BME280;10713;51.912;4.494;2023-05-01T08:09:02;101476.06;;;14.44;100.00
21111;BME280;10713;51.912;4.494;2023-05-01T08:11:27;101481.69;;;14.38;100.00
21111;BME280;10713;51.912;4.494;2023-05-01T08:13:54;101484.03;;;14.25;100.00
21111;BME280;10713;51.912;4.494;2023-05-01T08:16:19;101483.78;;;14.11;100.00
21111;BME280;10713;51.912;4.494;2023-05-01T08:18:44;101485.81;;;14.04;100.00
21111;BME280;10713;51.912;4.494;2023-05-01T08:21:10;101481.31;;;14.06;100.00
21111;BME280;10713;51.912;4.494;2023-05-01T08:23:36;101489.19;;;14.08;100.00
21111;BME280;10713;51.912;4.494;2023-05-01T08:26:02;101486.28;;;14.14;100.00
21111;BME280;10713;51.912;4.494;2023-05-01T08:28:27;101487.13;;;14.35;100.00
21111;BME280;10713;51.912;4.494;2023-05-01T08:30:53;101490.97;;;14.48;100.00
21111;BME280;10713;51.912;4.494;2023-05-01T08:33:18;101496.41;;;14.66;100.00
21111;BME280;10713;51.912;4.494;2023-05-01T08:35:43;101489.06;;;14.90;100.00
21111;BME280;10713;51.912;4.494;2023-05-01T08:38:10;101491.28;;;15.18;100.00
21111;BME280;10713;51.912;4.494;2023-05-01T08:40:37;101492.34;;;15.32;100.00
21111;BME280;10713;51.912;4.494;2023-05-01T08:43:02;101492.81;;;15.41;100.00
21111;BME280;10713;51.912;4.494;2023-05-01T08:45:32;101494.81;;;15.54;100.00
21111;BME280;10713;51.912;4.494;2023-05-01T08:48:04;101500.25;;;15.70;100.00
21111;BME280;10713;51.912;4.494;2023-05-01T08:50:33;101501.41;;;15.82;100.00
21111;BME280;10713;51.912;4.494;2023-05-01T08:53:01;101496.88;;;15.84;100.00
21111;BME280;10713;51.912;4.494;2023-05-01T08:55:29;101499.88;;;15.78;100.00
21111;BME280;10713;51.912;4.494;2023-05-01T08:57:56;101503.06;;;15.85;100.00
21111;BME280;10713;51.912;4.494;2023-05-01T09:00:23;101505.25;;;15.76;100.00
21111;BME280;10713;51.912;4.494;2023-05-01T09:02:49;101508.72;;;15.79;100.00
21111;BME280;10713;51.912;4.494;2023-05-01T09:05:19;101502.38;;;15.81;100.00
21111;BME280;10713;51.912;4.494;2023-05-01T09:07:45;101504.03;;;15.84;100.00
21111;BME280;10713;51.912;4.494;2023-05-01T09:10:12;101516.06;;;15.91;100.00
21111;BME280;10713;51.912;4.494;2023-05-01T09:12:38;101514.84;;;15.98;100.00
21111;BME280;10713;51.912;4.494;2023-05-01T09:15:06;101519.38;;;15.96;100.00
21111;BME280;10713;51.912;4.494;2023-05-01T09:17:32;101520.47;;;15.92;100.00
21111;BME280;10713;51.912;4.494;2023-05-01T09:20:00;101529.47;;;15.89;100.00
21111;BME280;10713;51.912;4.494;2023-05-01T09:22:26;101526.03;;;15.87;100.00
21111;BME280;10713;51.912;4.494;2023-05-01T09:24:51;101530.16;;;15.75;100.00
21111;BME280;10713;51.912;4.494;2023-05-01T09:27:17;101533.47;;;15.62;100.00
21111;BME280;10713;51.912;4.494;2023-05-01T09:29:47;101533.88;;;15.54;100.00
21111;BME280;10713;51.912;4.494;2023-05-01T09:32:22;101536.50;;;15.37;100.00
21111;BME280;10713;51.912;4.494;2023-05-01T09:34:50;101542.38;;;15.24;100.00
21111;BME280;10713;51.912;4.494;2023-05-01T09:37:28;101540.91;;;15.36;100.00
21111;BME280;10713;51.912;4.494;2023-05-01T09:40:04;101538.19;;;15.38;100.00
21111;BME280;10713;51.912;4.494;2023-05-01T09:42:31;101538.19;;;15.38;100.00
21111;BME280;10713;51.912;4.494;2023-05-01T09:44:58;101545.22;;;15.39;100.00
21111;BME280;10713;51.912;4.494;2023-05-01T09:47:24;101541.88;;;15.35;100.00
21111;BME280;10713;51.912;4.494;2023-05-01T09:49:55;101553.00;;;15.24;100.00
21111;BME280;10713;51.912;4.494;2023-05-01T09:52:28;101545.19;;;15.21;100.00
21111;BME280;10713;51.912;4.494;2023-05-01T09:55:16;101551.81;;;15.13;100.00
21111;BME280;10713;51.912;4.494;2023-05-01T09:57:43;101544.69;;;15.13;100.00
21111;BME280;10713;51.912;4.494;2023-05-01T10:00:10;101533.13;;;15.14;100.00
21111;BME280;10713;51.912;4.494;2023-05-01T10:02:37;101533.69;;;15.02;100.00
21111;BME280;10713;51.912;4.494;2023-05-01T10:05:04;101544.09;;;14.87;100.00
21111;BME280;10713;51.912;4.494;2023-05-01T10:07:29;101546.09;;;14.63;100.00
21111;BME280;10713;51.912;4.494;2023-05-01T10:09:55;101541.78;;;14.40;100.00
21111;BME280;10713;51.912;4.494;2023-05-01T10:12:25;101537.72;;;14.32;100.00
21111;BME280;10713;51.912;4.494;2023-05-01T10:14:55;101542.56;;;14.22;100.00
21111;BME280;10713;51.912;4.494;2023-05-01T10:17:22;101543.56;;;14.19;100.00
21111;BME280;10713;51.912;4.494;2023-05-01T10:19:48;101543.91;;;14.12;100.00
21111;BME280;10713;51.912;4.494;2023-05-01T10:22:14;101565.28;;;14.09;100.00
21111;BME280;10713;51.912;4.494;2023-05-01T10:24:41;101569.09;;;14.02;100.00
21111;BME280;10713;51.912;4.494;2023-05-01T10:27:06;101561.81;;;14.07;100.00
21111;BME280;10713;51.912;4.494;2023-05-01T10:29:36;101572.28;;;14.10;100.00
21111;BME280;10713;51.912;4.494;2023-05-01T10:32:03;101574.69;;;14.16;100.00
21111;BME280;10713;51.912;4.494;2023-05-01T10:34:36;101574.41;;;14.22;100.00
21111;BME280;10713;51.912;4.494;2023-05-01T10:37:12;101582.53;;;14.19;100.00
21111;BME280;10713;51.912;4.494;2023-05-01T10:39:38;101578.97;;;14.20;100.00
21111;BME280;10713;51.912;4.494;2023-05-01T10:42:07;101580.66;;;14.21;100.00
21111;BME280;10713;51.912;4.494;2023-05-01T10:44:39;101582.47;;;14.20;100.00
21111;BME280;10713;51.912;4.494;2023-05-01T10:55:45;101585.13;;;14.20;100.00
21111;BME280;10713;51.912;4.494;2023-05-01T10:58:12;101583.63;;;14.13;100.00
21111;BME280;10713;51.912;4.494;2023-05-01T11:00:38;101581.13;;;14.10;100.00
21111;BME280;10713;51.912;4.494;2023-05-01T11:08:34;101586.84;;;13.57;100.00
21111;BME280;10713;51.912;4.494;2023-05-01T11:18:58;101585.53;;;13.89;100.00
21111;BME280;10713;51.912;4.494;2023-05-01T11:21:30;101582.47;;;14.20;100.00
21111;BME280;10713;51.912;4.494;2023-05-01T11:23:58;101577.41;;;14.57;100.00
21111;BME280;10713;51.912;4.494;2023-05-01T11:26:24;101575.63;;;14.76;100.00
21111;BME280;10713;51.912;4.494;2023-05-01T11:28:53;101569.25;;;15.18;100.00
21111;BME280;10713;51.912;4.494;2023-05-01T11:31:19;101576.50;;;15.52;100.00
21111;BME280;10713;51.912;4.494;2023-05-01T11:33:45;101562.81;;;15.79;100.00
21111;BME280;10713;51.912;4.494;2023-05-01T11:36:11;101569.41;;;16.07;100.00
21111;BME280;10713;51.912;4.494;2023-05-01T11:38:36;101566.59;;;16.27;100.00
21111;BME280;10713;51.912;4.494;2023-05-01T11:41:03;101564.72;;;16.62;100.00
21111;BME280;10713;51.912;4.494;2023-05-01T11:43:29;101560.47;;;16.93;100.00
21111;BME280;10713;51.912;4.494;2023-05-01T11:45:55;101559.53;;;16.94;100.00
21111;BME280;10713;51.912;4.494;2023-05-01T11:48:27;101559.28;;;17.15;100.00
21111;BME280;10713;51.912;4.494;2023-05-01T11:50:53;101555.34;;;17.38;100.00
21111;BME280;10713;51.912;4.494;2023-05-01T11:53:18;101562.41;;;17.54;100.00
21111;BME280;10713;51.912;4.494;2023-05-01T11:55:44;101560.63;;;17.85;100.00
21111;BME280;10713;51.912;4.494;2023-05-01T11:58:10;101557.38;;;18.10;100.00
21111;BME280;10713;51.912;4.494;2023-05-01T12:00:40;101548.31;;;18.13;100.00
21111;BME280;10713;51.912;4.494;2023-05-01T12:05:33;101549.25;;;18.71;100.00
21111;BME280;10713;51.912;4.494;2023-05-01T12:10:54;101543.81;;;18.58;100.00
21111;BME280;10713;51.912;4.494;2023-05-01T12:13:20;101546.72;;;18.83;100.00
21111;BME280;10713;51.912;4.494;2023-05-01T12:15:49;101548.31;;;18.72;100.00
21111;BME280;10713;51.912;4.494;2023-05-01T12:18:16;101544.69;;;18.73;100.00
21111;BME280;10713;51.912;4.494;2023-05-01T12:20:47;101546.69;;;18.69;100.00
21111;BME280;10713;51.912;4.494;2023-05-01T12:23:14;101545.47;;;18.75;100.00
21111;BME280;10713;51.912;4.494;2023-05-01T12:25:41;101542.81;;;18.89;100.00
21111;BME280;10713;51.912;4.494;2023-05-01T12:28:14;101548.97;;;18.61;100.00
21111;BME280;10713;51.912;4.494;2023-05-01T12:30:42;101547.31;;;18.30;100.00
21111;BME280;10713;51.912;4.494;2023-05-01T12:33:17;101548.34;;;18.27;100.00
21111;BME280;10713;51.912;4.494;2023-05-01T12:35:45;101548.44;;;18.26;100.00
21111;BME280;10713;51.912;4.494;2023-05-01T12:38:21;101543.97;;;18.26;100.00
21111;BME280;10713;51.912;4.494;2023-05-01T12:40:54;101543.47;;;18.19;100.00
21111;BME280;10713;51.912;4.494;2023-05-01T12:43:28;101542.56;;;18.35;100.00
21111;BME280;10713;51.912;4.494;2023-05-01T12:45:55;101541.34;;;18.55;100.00
21111;BME280;10713;51.912;4.494;2023-05-01T12:48:21;101539.59;;;18.54;100.00
21111;BME280;10713;51.912;4.494;2023-05-01T12:50:47;101542.00;;;18.58;100.00
21111;BME280;10713;51.912;4.494;2023-05-01T12:53:19;101549.00;;;18.89;100.00
21111;BME280;10713;51.912;4.494;2023-05-01T12:55:47;101550.50;;;19.08;100.00
21111;BME280;10713;51.912;4.494;2023-05-01T12:58:14;101551.47;;;19.07;100.00
21111;BME280;10713;51.912;4.494;2023-05-01T13:00:47;101535.69;;;19.02;100.00
21111;BME280;10713;51.912;4.494;2023-05-01T13:03:13;101546.41;;;19.02;100.00
21111;BME280;10713;51.912;4.494;2023-05-01T13:10:53;101549.75;;;19.06;100.00
21111;BME280;10713;51.912;4.494;2023-05-01T13:13:26;101548.69;;;18.94;100.00
21111;BME280;10713;51.912;4.494;2023-05-01T13:15:52;101541.56;;;18.95;100.00
21111;BME280;10713;51.912;4.494;2023-05-01T13:18:18;101535.88;;;19.13;100.00
21111;BME280;10713;51.912;4.494;2023-05-01T13:20:43;101548.09;;;19.32;100.00
21111;BME280;10713;51.912;4.494;2023-05-01T13:23:11;101545.03;;;19.51;100.00